Arcadia, WI (54612)

7:06 AM CDT on July 26, 2016 (GMT -0500)
Dodge | | Change Station
Active Advisory: Special Statement

Elev 735 ft 44.14 °N, 91.57 °W | Updated 12 minutes ago

Clear
Clear
62.3 °F
Feels Like 62.3 °F
N
0.0
Wind Variable Wind from NW
Gusts 0.0 mph

Today
High -- | Low -- °F
--% Chance of Precip.
Yesterday
High -- | Low -- °F
Precip. -- in
Pressure 30.07 in
Visibility 10.0 miles
Clouds Clear
Dew Point 62 °F
Humidity 98%
Rainfall 0.00 in
Snow Depth Not available.
5:47 AM 8:36 PM
Waning Gibbous, 55% visible
METAR KONA 261153Z AUTO 00000KT 10SM CLR 19/18 A3007 RMK AO2
Pressure 30.07 in
Visibility 10.0 miles
Clouds Clear
Dew Point 62 °F
Humidity 98%
Rainfall 0.00 in
Snow Depth Not available.
5:47 AM 8:36 PM
Waning Gibbous, 55% visible
METAR KONA 261153Z AUTO 00000KT 10SM CLR 19/18 A3007 RMK AO2

10-Day Weather Forecast

Almanac

Astronomy

Jul. 26, 2016 Rise Set
Actual Time
Civil Twilight
Nautical Twilight
Astronomical Twilight
Moon
Length of Visible Light
Length of Day
Tomorrow will be .
, % of the Moon is Illuminated

Today's Extremes

State Highs State Lows

Community

WunderPhotos

Upload Photos

1,927,580 photos uploaded!

WunderBlog® & News

Nearby

Air Quality

  Air Quality AQ Index Pollutant
Not available.

Snow Depth

Station Depth Elevation

Earthquake Activity

City Distance Mag. Time & Date
Minimum magnitude displayed is 2.5.

Coastal Water Temperatures

Place Temperature

Stations

Nearby Weather Stations

Station Location Temp. Windchill Dew Point Humidity Wind Precip. Elev Updated Type
                   

Watches & Warnings

Special Statement
Issued: 6:53 AM CDT Jul. 26, 2016 – National Weather Service

... Patchy fog in the river valleys early this morning...

If traveling through river valleys this morning... be prepared for
patchy fog that could suddenly reduce visibilities to 1/2 mile or
less. Expect the fog to dissipate by 9 am. Slow down and allow
extra time to reach your destination.


653 am CDT Tue Jul 26 2016

... Patchy fog in the river valleys early this morning...

If traveling through river valleys this morning... be prepared for
patchy fog that could suddenly reduce visibilities to 1/2 mile or
less. Expect the fog to dissipate by 9 am. Slow down and allow
extra time to reach your destination.